Time;durP1;ratioP1;P1;durP2;ratioP2;P2;SDS_P1;SDS_P2;PMS_P1;PMS_P2;Temp;Humidity;BMP_temperature;BMP_pressure;BME280_temperature;BME280_humidity;BME280_pressure;Samples;Min_cycle;Max_cycle;Signal;HPM_P1;HPM_P2
2022/11/27 00:01:25;;;;;;;23.40;7.90;;;7.20;99.90;;;;;;5133016;27;20055;-78
2022/11/27 00:03:52;;;;;;;20.48;7.07;;;7.30;99.90;;;;;;5100461;27;20035;-78
2022/11/27 00:06:20;;;;;;;20.38;6.82;;;7.20;99.90;;;;;;5133614;27;20082;-78
2022/11/27 00:08:46;;;;;;;22.38;7.00;;;7.10;99.90;;;;;;5114337;27;20035;-78
2022/11/27 00:11:21;;;;;;;17.52;6.30;;;7.10;99.90;;;;;;5113187;27;20376;-78
2022/11/27 00:13:47;;;;;;;23.00;6.72;;;8.50;99.90;;;;;;5112265;28;20035;-78
2022/11/27 00:16:14;;;;;;;26.77;7.53;;;7.10;99.90;;;;;;5112753;27;20146;-78
2022/11/27 00:18:40;;;;;;;17.33;6.90;;;7.10;99.90;;;;;;5117840;27;20123;-78
2022/11/27 00:21:14;;;;;;;18.27;6.85;;;7.10;99.90;;;;;;5115181;27;20099;-78
2022/11/27 00:23:40;;;;;;;25.25;7.40;;;7.10;99.90;;;;;;5133527;27;20039;-78
2022/11/27 00:26:06;;;;;;;16.35;6.03;;;8.50;99.90;;;;;;5132967;27;20099;-78
2022/11/27 00:28:33;;;;;;;17.70;7.07;;;7.00;99.90;;;;;;5097798;27;20058;-78
2022/11/27 00:30:59;;;;;;;18.10;6.43;;;7.10;99.90;;;;;;5125804;27;20360;-78
2022/11/27 00:33:25;;;;;;;21.35;6.65;;;7.00;99.90;;;;;;5113023;28;20105;-78
2022/11/27 00:35:51;;;;;;;19.73;6.82;;;7.00;99.90;;;;;;5094153;28;20067;-78
2022/11/27 00:38:16;;;;;;;18.77;6.30;;;7.00;99.90;;;;;;5111189;28;20130;-78
2022/11/27 00:40:42;;;;;;;17.17;7.18;;;8.00;99.90;;;;;;5112821;28;20039;-78
2022/11/27 00:43:08;;;;;;;18.90;6.90;;;7.00;99.90;;;;;;5101802;27;20039;-79
2022/11/27 00:45:33;;;;;;;21.42;7.38;;;7.60;99.90;;;;;;5132874;27;20043;-78
2022/11/27 00:47:59;;;;;;;20.40;7.38;;;6.90;99.90;;;;;;5133666;27;20495;-78
2022/11/27 00:50:25;;;;;;;17.63;6.85;;;6.90;99.90;;;;;;5133263;27;20547;-78
2022/11/27 00:52:50;;;;;;;24.88;6.78;;;7.00;99.90;;;;;;5133381;28;20081;-78
2022/11/27 00:55:16;;;;;;;15.60;6.75;;;7.00;99.90;;;;;;5114749;28;20067;-78
2022/11/27 00:57:41;;;;;;;21.55;6.28;;;7.00;99.90;;;;;;5114898;28;20402;-78
2022/11/27 01:00:07;;;;;;;17.08;6.07;;;6.90;99.90;;;;;;5133373;28;20043;-78
2022/11/27 01:02:33;;;;;;;18.30;6.25;;;6.90;99.90;;;;;;5114985;28;20170;-78
2022/11/27 01:04:59;;;;;;;18.42;6.35;;;6.90;99.90;;;;;;5126297;28;20153;-78
2022/11/27 01:07:25;;;;;;;23.55;6.68;;;6.90;99.90;;;;;;5132644;28;20035;-78
2022/11/27 01:09:51;;;;;;;17.48;6.53;;;8.40;99.90;;;;;;5132953;28;20035;-78
2022/11/27 01:12:17;;;;;;;18.95;6.50;;;8.30;99.90;;;;;;5132358;28;20051;-78
2022/11/27 01:14:42;;;;;;;15.23;6.60;;;6.90;99.90;;;;;;5132018;28;20417;-77
2022/11/27 01:17:08;;;;;;;20.83;7.50;;;6.90;99.90;;;;;;5114847;28;20035;-78
2022/11/27 01:19:33;;;;;;;18.88;6.32;;;6.90;99.90;;;;;;5133006;28;20126;-79
2022/11/27 01:21:59;;;;;;;16.35;7.28;;;6.90;99.90;;;;;;5132495;28;20049;-78
2022/11/27 01:24:25;;;;;;;16.98;6.57;;;6.90;99.90;;;;;;5114480;28;20039;-78
2022/11/27 01:26:50;;;;;;;20.83;6.53;;;6.80;99.90;;;;;;5132337;28;20031;-78
2022/11/27 01:29:16;;;;;;;20.95;6.85;;;6.80;99.90;;;;;;5097380;28;20047;-78
2022/11/27 01:31:41;;;;;;;16.98;6.60;;;6.80;99.90;;;;;;5113793;28;20035;-78
2022/11/27 01:34:12;;;;;;;20.20;7.50;;;6.80;99.90;;;;;;5132664;28;20467;-78
2022/11/27 01:36:38;;;;;;;17.35;6.95;;;6.80;99.90;;;;;;5112512;28;20039;-78
2022/11/27 01:39:04;;;;;;;15.40;6.63;;;6.70;99.90;;;;;;5129818;27;20053;-78
2022/11/27 01:41:35;;;;;;;19.52;6.50;;;6.70;99.90;;;;;;5114398;28;20119;-78
2022/11/27 01:44:23;;;;;;;17.90;6.65;;;6.70;99.90;;;;;;5116379;28;20036;-78
2022/11/27 01:46:54;;;;;;;23.02;7.30;;;6.70;99.90;;;;;;5097682;28;20403;-78
2022/11/27 01:49:23;;;;;;;18.85;6.57;;;6.70;99.90;;;;;;5098559;28;20399;-78
2022/11/27 01:52:19;;;;;;;15.88;6.30;;;6.70;99.90;;;;;;5103876;27;20410;-78
2022/11/27 01:54:48;;;;;;;;;;;6.60;99.90;;;;;;5118501;27;20047;-78
2022/11/27 01:57:23;;;;;;;18.90;7.50;;;6.70;99.90;;;;;;5117784;27;19926;-78
2022/11/27 01:59:50;;;;;;;22.35;7.47;;;6.60;99.90;;;;;;5133840;27;20577;-78
2022/11/27 02:02:16;;;;;;;20.83;7.55;;;6.60;99.90;;;;;;5134467;27;20043;-78
2022/11/27 02:04:42;;;;;;;21.33;6.97;;;6.60;99.90;;;;;;5117586;27;20031;-78
2022/11/27 02:07:08;;;;;;;18.25;6.85;;;6.60;99.90;;;;;;5136185;27;20038;-78
2022/11/27 02:09:34;;;;;;;17.48;6.93;;;6.60;99.90;;;;;;5136475;27;20114;-78
2022/11/27 02:12:25;;;;;;;19.80;7.53;;;6.60;99.90;;;;;;5135989;27;20118;-78
2022/11/27 02:14:53;;;;;;;16.33;6.85;;;6.50;99.90;;;;;;5129826;27;20048;-78
2022/11/27 02:17:45;;;;;;;16.58;7.38;;;6.50;99.90;;;;;;5117757;27;20075;-78
2022/11/27 02:20:24;;;;;;;18.85;6.93;;;6.60;99.90;;;;;;5117367;27;20047;-77
2022/11/27 02:23:05;;;;;;;15.48;6.50;;;6.50;99.90;;;;;;5136525;27;20043;-78
2022/11/27 02:25:50;;;;;;;16.20;7.03;;;6.50;99.90;;;;;;5123675;27;20044;-78
2022/11/27 02:28:34;;;;;;;21.30;7.53;;;6.50;99.90;;;;;;5114979;27;20479;-78
2022/11/27 02:31:14;;;;;;;17.63;7.38;;;6.60;99.90;;;;;;5117531;27;20051;-78
2022/11/27 02:33:44;;;;;;;14.57;6.45;;;7.60;99.90;;;;;;5099841;28;20138;-78
2022/11/27 02:36:17;;;;;;;16.63;6.97;;;7.00;99.90;;;;;;5079893;28;20043;-78
2022/11/27 02:39:07;;;;;;;20.83;6.80;;;6.60;99.90;;;;;;5115600;28;20396;-78
2022/11/27 02:41:54;;;;;;;20.55;7.30;;;6.60;99.90;;;;;;5061834;28;20164;-78
2022/11/27 02:44:21;;;;;;;18.08;6.63;;;6.60;99.90;;;;;;5120238;27;20039;-78
2022/11/27 02:46:48;;;;;;;15.60;7.07;;;6.70;99.90;;;;;;5135163;27;20051;-79
2022/11/27 02:49:17;;;;;;;13.75;6.00;;;6.70;99.90;;;;;;5117286;27;20051;-78
2022/11/27 02:51:51;;;;;;;17.42;6.05;;;6.70;99.90;;;;;;5116343;27;20114;-79
2022/11/27 02:54:21;;;;;;;16.48;6.40;;;6.70;99.90;;;;;;5135767;27;20038;-79
2022/11/27 02:56:48;;;;;;;16.38;6.50;;;6.70;99.90;;;;;;5116866;27;20134;-78
2022/11/27 02:59:17;;;;;;;16.45;6.32;;;6.70;99.90;;;;;;5116306;27;20067;-79
2022/11/27 03:01:50;;;;;;;15.65;5.78;;;6.80;99.90;;;;;;5134503;27;20047;-78
2022/11/27 03:04:22;;;;;;;17.48;6.47;;;6.80;99.90;;;;;;5125218;27;20072;-78
2022/11/27 03:06:58;;;;;;;15.32;5.80;;;6.80;99.90;;;;;;5117661;27;20078;-78
2022/11/27 03:09:35;;;;;;;15.88;6.47;;;6.80;99.90;;;;;;5135368;27;20492;-78
2022/11/27 03:12:03;;;;;;;14.27;6.38;;;6.80;99.90;;;;;;5099608;27;20083;-79
2022/11/27 03:14:29;;;;;;;19.80;6.55;;;6.70;99.90;;;;;;5116474;27;20043;-78
2022/11/27 03:17:36;;;;;;;16.88;6.25;;;6.80;99.90;;;;;;5116274;27;20103;-78
2022/11/27 03:20:26;;;;;;;13.07;5.47;;;6.80;99.90;;;;;;5017301;28;20063;-78
2022/11/27 03:22:53;;;;;;;14.20;5.82;;;6.80;99.90;;;;;;5051085;28;20120;-78
2022/11/27 03:25:19;;;;;;;14.70;5.85;;;6.80;99.90;;;;;;5081536;27;20051;-78
2022/11/27 03:27:51;;;;;;;14.93;6.03;;;6.80;99.90;;;;;;5134827;27;20112;-78
2022/11/27 03:30:17;;;;;;;16.70;5.85;;;6.90;99.90;;;;;;5134405;27;20050;-78
2022/11/27 03:32:43;;;;;;;11.02;5.70;;;6.90;99.90;;;;;;5116049;27;20126;-78
2022/11/27 03:35:11;;;;;;;12.75;5.97;;;6.90;99.90;;;;;;5115794;27;20039;-78
2022/11/27 03:37:37;;;;;;;17.33;6.40;;;6.90;99.90;;;;;;5113777;27;20107;-79
2022/11/27 03:40:04;;;;;;;16.30;6.10;;;6.80;99.90;;;;;;5134617;27;20043;-78
2022/11/27 03:42:46;;;;;;;15.18;5.70;;;6.80;99.90;;;;;;5126339;27;20151;-78
2022/11/27 03:45:11;;;;;;;16.50;5.72;;;6.90;99.90;;;;;;5113301;27;20081;-78
2022/11/27 03:47:46;;;;;;;9.95;5.10;;;6.90;99.90;;;;;;5115889;27;20090;-78
2022/11/27 03:50:30;;;;;;;13.65;5.80;;;7.60;99.90;;;;;;5098855;27;20462;-78
2022/11/27 03:53:29;;;;;;;15.43;5.63;;;6.90;99.90;;;;;;5116149;27;20356;-79
2022/11/27 03:56:06;;;;;;;12.95;5.88;;;6.90;99.90;;;;;;5133957;27;20047;-78
2022/11/27 03:58:39;;;;;;;13.88;5.95;;;6.90;99.90;;;;;;5133652;27;20407;-78
2022/11/27 04:01:10;;;;;;;10.13;5.97;;;6.90;99.90;;;;;;5115103;27;20084;-79
2022/11/27 04:03:36;;;;;;;14.55;5.78;;;6.90;99.90;;;;;;5133392;27;20042;-79
2022/11/27 04:06:01;;;;;;;13.88;5.32;;;6.90;99.90;;;;;;5133665;27;20039;-78
2022/11/27 04:08:27;;;;;;;13.75;6.15;;;6.90;99.90;;;;;;5133816;27;20066;-79
2022/11/27 04:10:52;;;;;;;16.33;5.70;;;6.90;99.90;;;;;;5115007;27;20039;-78
2022/11/27 04:13:18;;;;;;;15.07;5.50;;;6.80;99.90;;;;;;5115484;27;20491;-79
2022/11/27 04:15:44;;;;;;;15.43;5.50;;;6.80;99.90;;;;;;5114579;27;20046;-79
2022/11/27 04:18:10;;;;;;;18.30;6.32;;;6.90;99.90;;;;;;5114225;27;20122;-79
2022/11/27 04:20:36;;;;;;;12.05;5.68;;;6.80;99.90;;;;;;5115216;27;20182;-78
2022/11/27 04:23:02;;;;;;;15.07;6.22;;;6.80;99.90;;;;;;5133421;27;20035;-78
2022/11/27 04:25:27;;;;;;;15.48;6.03;;;6.80;99.90;;;;;;5114443;27;20096;-78
2022/11/27 04:27:53;;;;;;;13.25;5.70;;;6.80;99.90;;;;;;5096095;27;20038;-78
2022/11/27 04:30:19;;;;;;;11.23;5.35;;;6.80;99.90;;;;;;5133596;27;20039;-78
2022/11/27 04:32:44;;;;;;;10.68;5.50;;;6.80;99.90;;;;;;5108865;27;20081;-78
2022/11/27 04:35:10;;;;;;;12.05;5.53;;;7.80;99.90;;;;;;5133718;27;20070;-78
2022/11/27 04:37:36;;;;;;;14.38;5.68;;;6.80;99.90;;;;;;5133894;27;20440;-79
2022/11/27 04:40:03;;;;;;;14.75;4.97;;;6.70;99.90;;;;;;5133430;27;20364;-78
2022/11/27 04:42:28;;;;;;;13.20;5.18;;;6.80;99.90;;;;;;5114969;27;20110;-78
2022/11/27 04:44:54;;;;;;;10.77;5.45;;;6.70;99.90;;;;;;5133403;27;20554;-78
2022/11/27 04:47:20;;;;;;;12.80;5.68;;;6.70;99.90;;;;;;5133387;27;20043;-78
2022/11/27 04:49:45;;;;;;;12.98;5.35;;;6.70;99.90;;;;;;5133664;27;20125;-78
2022/11/27 04:52:11;;;;;;;13.27;5.20;;;6.70;99.90;;;;;;5133566;27;20118;-78
2022/11/27 04:54:37;;;;;;;13.10;5.35;;;6.70;99.90;;;;;;5114894;28;20538;-79
2022/11/27 04:57:02;;;;;;;12.68;4.68;;;6.70;99.90;;;;;;5115115;28;20047;-78
2022/11/27 04:59:28;;;;;;;14.27;5.18;;;6.70;99.90;;;;;;5133555;28;20095;-78
2022/11/27 05:01:54;;;;;;;14.45;5.20;;;6.70;99.90;;;;;;5114647;28;20047;-78
2022/11/27 05:04:20;;;;;;;12.40;5.50;;;6.70;99.90;;;;;;5104787;28;20047;-78
2022/11/27 05:06:46;;;;;;;12.60;5.18;;;6.70;99.90;;;;;;5094541;28;20392;-78
2022/11/27 05:09:12;;;;;;;13.45;5.10;;;6.70;99.90;;;;;;5094824;28;20044;-78
2022/11/27 05:11:37;;;;;;;16.23;5.13;;;6.60;99.90;;;;;;5132477;28;20054;-78
2022/11/27 05:14:19;;;;;;;12.32;5.50;;;6.70;99.90;;;;;;5115628;27;20039;-78
2022/11/27 05:16:53;;;;;;;11.82;4.68;;;6.70;99.90;;;;;;5118447;27;20055;-78
2022/11/27 05:19:21;;;;;;;11.88;5.25;;;6.60;99.90;;;;;;5137645;27;20364;-78
2022/11/27 05:21:48;;;;;;;12.07;4.78;;;7.30;99.90;;;;;;5117280;27;20046;-79
2022/11/27 05:24:17;;;;;;;12.95;5.75;;;7.80;99.90;;;;;;5117574;27;20058;-78
2022/11/27 05:26:43;;;;;;;13.55;4.90;;;6.60;99.90;;;;;;5137272;27;20115;-78
2022/11/27 05:29:10;;;;;;;14.73;5.30;;;7.40;99.90;;;;;;5137195;27;20039;-78
2022/11/27 05:31:36;;;;;;;9.75;4.47;;;6.50;99.90;;;;;;5118427;27;20046;-79
2022/11/27 05:34:03;;;;;;;13.18;5.30;;;6.50;99.90;;;;;;5118554;27;20035;-78
2022/11/27 05:36:29;;;;;;;10.90;4.82;;;7.20;99.90;;;;;;5136712;27;20082;-78
2022/11/27 05:38:55;;;;;;;10.50;4.90;;;6.60;99.90;;;;;;5137171;27;20049;-79
2022/11/27 05:41:21;;;;;;;11.30;4.90;;;7.60;99.90;;;;;;5117908;27;20126;-78
2022/11/27 05:43:47;;;;;;;11.57;4.55;;;6.50;99.90;;;;;;5127858;27;20430;-78
2022/11/27 05:46:15;;;;;;;14.20;5.22;;;6.50;99.90;;;;;;5136351;27;20133;-78
2022/11/27 05:48:41;;;;;;;10.07;4.40;;;6.50;99.90;;;;;;5136237;27;20091;-78
2022/11/27 05:51:07;;;;;;;11.13;4.82;;;6.50;99.90;;;;;;5136415;27;20043;-78
2022/11/27 05:53:33;;;;;;;11.45;5.10;;;7.10;99.90;;;;;;5135835;27;20122;-78
2022/11/27 05:56:16;;;;;;;15.00;4.88;;;6.90;99.90;;;;;;5114518;28;20087;-78
2022/11/27 05:58:43;;;;;;;9.13;4.47;;;6.50;99.90;;;;;;5102610;27;20135;-78
2022/11/27 06:01:10;;;;;;;11.15;4.80;;;6.50;99.90;;;;;;5136133;27;20039;-79
2022/11/27 06:03:37;;;;;;;16.90;5.15;;;6.40;99.90;;;;;;5136292;27;20039;-78
2022/11/27 06:06:17;;;;;;;14.70;4.55;;;6.40;99.90;;;;;;5136032;27;20095;-78
2022/11/27 06:08:44;;;;;;;13.32;4.35;;;6.40;99.90;;;;;;5116707;27;20042;-78
2022/11/27 06:11:20;;;;;;;9.68;4.72;;;6.90;99.90;;;;;;5135903;27;20047;-78
2022/11/27 06:13:47;;;;;;;11.77;4.38;;;7.00;99.90;;;;;;5135861;27;20065;-78
2022/11/27 06:16:18;;;;;;;11.63;4.32;;;6.50;99.90;;;;;;5135824;27;20043;-78
2022/11/27 06:18:44;;;;;;;15.23;4.90;;;6.40;99.90;;;;;;5117650;27;20399;-79
2022/11/27 06:21:14;;;;;;;10.20;4.72;;;6.40;99.90;;;;;;5134969;27;20050;-78
2022/11/27 06:23:43;;;;;;;10.82;4.90;;;6.40;99.90;;;;;;5117468;27;20039;-78
2022/11/27 06:26:30;;;;;;;11.60;4.28;;;6.40;99.90;;;;;;5135185;27;20039;-77
2022/11/27 06:28:57;;;;;;;14.68;4.97;;;6.40;99.90;;;;;;5136305;27;20429;-78
2022/11/27 06:31:26;;;;;;;13.38;4.90;;;6.50;99.90;;;;;;5130834;27;20036;-77
2022/11/27 06:33:53;;;;;;;11.18;4.40;;;6.50;99.90;;;;;;5126266;27;20039;-78
2022/11/27 06:36:20;;;;;;;9.20;4.20;;;7.30;99.90;;;;;;5116602;27;20114;-78
2022/11/27 06:38:45;;;;;;;10.65;3.97;;;6.50;99.90;;;;;;5133751;27;20380;-77
2022/11/27 06:41:20;;;;;;;9.93;4.22;;;6.40;99.90;;;;;;5079900;28;20126;-78
2022/11/27 06:43:46;;;;;;;8.57;3.80;;;6.50;99.90;;;;;;5115305;28;20130;-78
2022/11/27 06:46:17;;;;;;;11.25;4.50;;;6.50;99.90;;;;;;5096585;28;20131;-78
2022/11/27 06:48:44;;;;;;;10.38;3.72;;;6.60;99.90;;;;;;5097061;28;20051;-78
2022/11/27 06:51:12;;;;;;;10.93;4.38;;;6.60;99.90;;;;;;5118352;27;20039;-78
2022/11/27 06:53:39;;;;;;;7.30;3.60;;;6.70;99.90;;;;;;5114888;27;20176;-79
2022/11/27 06:56:07;;;;;;;11.93;4.30;;;7.50;99.90;;;;;;5095836;28;20448;-79
2022/11/27 06:58:34;;;;;;;8.57;4.10;;;6.70;99.90;;;;;;5114850;28;20446;-79
2022/11/27 07:01:01;;;;;;;11.48;4.20;;;6.70;99.90;;;;;;5096401;27;20127;-79
2022/11/27 07:03:27;;;;;;;12.35;4.30;;;6.70;99.90;;;;;;5135088;27;20043;-79
2022/11/27 07:05:53;;;;;;;9.88;4.43;;;6.60;99.90;;;;;;5134950;27;20145;-79
2022/11/27 07:08:19;;;;;;;9.20;4.45;;;6.60;99.90;;;;;;5114977;27;20475;-79
2022/11/27 07:10:45;;;;;;;12.90;4.43;;;6.60;99.90;;;;;;5113768;27;20524;-79
2022/11/27 07:13:10;;;;;;;11.38;4.90;;;7.00;99.90;;;;;;5116688;27;20045;-79
2022/11/27 07:15:36;;;;;;;13.35;4.10;;;6.60;99.90;;;;;;5126934;27;20204;-78
2022/11/27 07:18:02;;;;;;;10.50;4.65;;;6.60;99.90;;;;;;5116746;27;20126;-79
2022/11/27 07:20:28;;;;;;;10.18;4.30;;;6.60;99.90;;;;;;5116185;27;20478;-79
2022/11/27 07:22:54;;;;;;;11.95;4.10;;;6.70;99.90;;;;;;5134599;27;20046;-78
2022/11/27 07:25:19;;;;;;;10.77;4.20;;;6.70;99.90;;;;;;5130692;27;20114;-78
2022/11/27 07:27:45;;;;;;;12.43;4.60;;;6.60;99.90;;;;;;5095720;28;20144;-78
2022/11/27 07:30:11;;;;;;;11.55;4.20;;;7.90;99.90;;;;;;5095894;28;20046;-78
2022/11/27 07:32:36;;;;;;;9.48;4.28;;;6.60;99.90;;;;;;5114156;28;20515;-79
2022/11/27 07:35:02;;;;;;;10.13;4.93;;;6.60;99.90;;;;;;5096095;28;20051;-78
2022/11/27 07:37:31;;;;;;;9.60;4.68;;;6.60;99.90;;;;;;5121485;27;20054;-79
2022/11/27 07:39:57;;;;;;;11.00;4.60;;;6.60;99.90;;;;;;5099047;27;20092;-79
2022/11/27 07:42:23;;;;;;;13.77;4.57;;;6.60;99.90;;;;;;5111195;27;20438;-78
2022/11/27 07:44:48;;;;;;;12.45;4.63;;;6.50;99.90;;;;;;5116414;27;20035;-78
2022/11/27 07:47:14;;;;;;;11.63;4.90;;;6.60;99.90;;;;;;5134300;27;20061;-78
2022/11/27 07:49:40;;;;;;;11.15;4.82;;;6.60;99.90;;;;;;5134666;27;20046;-79
2022/11/27 07:52:05;;;;;;;13.75;4.70;;;6.60;99.90;;;;;;5116150;27;20046;-78
2022/11/27 07:54:31;;;;;;;12.02;4.68;;;6.60;99.90;;;;;;5134151;27;20531;-78
2022/11/27 07:56:57;;;;;;;10.23;4.65;;;6.60;99.90;;;;;;5145255;27;20046;-79
2022/11/27 07:59:22;;;;;;;9.40;4.78;;;6.60;99.90;;;;;;5127707;27;20058;-79
2022/11/27 08:01:48;;;;;;;11.45;5.13;;;6.60;99.90;;;;;;5133751;27;20209;-79
2022/11/27 08:04:13;;;;;;;10.18;4.70;;;6.70;99.90;;;;;;5134150;27;20051;-79
2022/11/27 08:06:39;;;;;;;8.82;4.65;;;6.70;99.90;;;;;;5115596;27;20043;-78
2022/11/27 08:09:05;;;;;;;9.43;4.75;;;6.70;99.90;;;;;;5134543;27;20039;-78
2022/11/27 08:11:31;;;;;;;10.52;4.97;;;6.70;99.90;;;;;;5115306;27;20503;-78
2022/11/27 08:14:00;;;;;;;10.50;4.80;;;6.70;99.90;;;;;;5133303;27;20135;-78
2022/11/27 08:16:26;;;;;;;10.52;4.97;;;6.70;99.90;;;;;;5132533;27;20096;-78
2022/11/27 08:18:52;;;;;;;12.93;5.00;;;6.70;99.90;;;;;;5133588;27;20114;-78
2022/11/27 08:21:19;;;;;;;13.82;5.88;;;6.70;99.90;;;;;;5133833;27;20089;-78
2022/11/27 08:23:44;;;;;;;11.65;5.10;;;6.70;99.90;;;;;;5134228;27;20045;-78
2022/11/27 08:26:11;;;;;;;10.20;5.22;;;6.70;99.90;;;;;;5115358;27;20035;-78
2022/11/27 08:28:38;;;;;;;10.05;5.03;;;6.70;99.90;;;;;;5115566;27;20043;-78
2022/11/27 08:31:05;;;;;;;14.43;5.32;;;7.30;99.90;;;;;;5133276;27;20476;-78
2022/11/27 08:33:31;;;;;;;10.27;5.30;;;6.70;99.90;;;;;;5133226;27;20054;-78
2022/11/27 08:35:57;;;;;;;10.35;4.82;;;6.70;99.90;;;;;;5115030;27;20400;-78
2022/11/27 08:38:23;;;;;;;12.02;5.93;;;7.70;99.90;;;;;;5115404;27;20103;-78
2022/11/27 08:40:56;;;;;;;13.55;5.63;;;6.80;99.90;;;;;;5133743;27;20054;-78
2022/11/27 08:43:22;;;;;;;10.38;5.40;;;6.80;99.90;;;;;;5097491;27;20151;-78
2022/11/27 08:45:48;;;;;;;12.18;4.90;;;6.80;99.90;;;;;;5097493;27;20051;-78
2022/11/27 08:48:14;;;;;;;11.10;5.18;;;6.70;99.90;;;;;;5097342;28;20050;-78
2022/11/27 08:50:39;;;;;;;11.65;5.40;;;6.80;99.90;;;;;;5114358;28;20436;-78
2022/11/27 08:53:05;;;;;;;12.82;5.53;;;6.80;99.90;;;;;;5113148;28;20055;-79
2022/11/27 08:55:31;;;;;;;14.25;6.00;;;8.10;99.90;;;;;;5097428;28;20134;-79
2022/11/27 08:57:56;;;;;;;13.27;5.43;;;6.70;99.90;;;;;;5113075;27;20043;-78
2022/11/27 09:00:22;;;;;;;11.10;5.20;;;6.70;99.90;;;;;;5101353;28;20027;-78
2022/11/27 09:02:48;;;;;;;14.20;5.70;;;7.90;99.90;;;;;;5132701;28;20058;-78
2022/11/27 09:05:13;;;;;;;14.90;5.97;;;6.70;99.90;;;;;;5131699;28;20064;-78
2022/11/27 09:07:40;;;;;;;13.52;5.90;;;6.80;99.90;;;;;;5133726;28;20111;-78
2022/11/27 09:10:09;;;;;;;12.85;5.88;;;6.70;99.90;;;;;;5133391;28;20057;-78
2022/11/27 09:12:35;;;;;;;13.00;5.72;;;6.80;99.90;;;;;;5097415;28;20055;-78
2022/11/27 09:15:01;;;;;;;12.80;5.38;;;6.80;99.90;;;;;;5132546;28;20104;-78
2022/11/27 09:17:27;;;;;;;13.82;5.60;;;6.80;99.90;;;;;;5133260;28;20043;-78
2022/11/27 09:19:52;;;;;;;15.48;5.72;;;6.80;99.90;;;;;;5132315;28;20074;-78
2022/11/27 09:22:18;;;;;;;12.73;6.20;;;6.80;99.90;;;;;;5099648;28;20051;-78
2022/11/27 09:24:43;;;;;;;11.75;5.75;;;6.90;99.90;;;;;;5112410;28;20043;-78
2022/11/27 09:27:09;;;;;;;12.02;5.88;;;6.80;99.90;;;;;;5127730;28;20043;-78
2022/11/27 09:29:35;;;;;;;12.00;5.78;;;6.80;99.90;;;;;;5133433;28;20122;-78
2022/11/27 09:32:08;;;;;;;12.18;6.72;;;6.80;99.90;;;;;;5114081;28;20426;-78
2022/11/27 09:34:34;;;;;;;16.02;6.78;;;6.80;99.90;;;;;;5112527;28;20047;-79
2022/11/27 09:37:00;;;;;;;14.00;5.93;;;6.80;99.90;;;;;;5122678;28;20035;-79
2022/11/27 09:39:32;;;;;;;14.65;6.25;;;7.90;99.90;;;;;;5114703;28;20039;-78
2022/11/27 09:42:00;;;;;;;11.43;6.05;;;7.80;99.90;;;;;;5095981;28;20039;-79
2022/11/27 09:44:47;;;;;;;12.15;6.30;;;6.80;99.90;;;;;;5115804;28;20376;-78
2022/11/27 09:47:20;;;;;;;;;;;8.30;99.90;;;;;;5114715;28;20258;-79
2022/11/27 09:50:11;;;;;;;12.70;6.20;;;6.70;99.90;;;;;;5132286;28;20308;-78
2022/11/27 09:53:02;;;;;;;12.95;6.70;;;6.80;99.90;;;;;;5113876;28;20051;-79
2022/11/27 09:55:37;;;;;;;13.40;6.50;;;6.70;99.90;;;;;;5114251;28;20043;-79
2022/11/27 09:58:17;;;;;;;13.38;6.50;;;6.70;99.90;;;;;;5112169;28;20040;-80
2022/11/27 10:00:44;;;;;;;15.07;6.50;;;6.90;99.90;;;;;;5113561;28;20039;-80
2022/11/27 10:03:24;;;;;;;11.38;6.32;;;6.70;99.90;;;;;;5115893;28;20392;-80
2022/11/27 10:06:07;;;;;;;11.68;6.25;;;6.80;99.90;;;;;;5097478;28;20059;-79
2022/11/27 10:08:57;;;;;;;13.98;6.30;;;6.80;99.90;;;;;;5097430;28;20047;-79
2022/11/27 10:11:30;;;;;;;12.82;6.50;;;7.00;99.90;;;;;;5115648;28;20039;-80
2022/11/27 10:14:08;;;;;;;13.88;6.47;;;6.70;99.90;;;;;;5115808;28;20044;-80
2022/11/27 10:16:43;;;;;;;12.50;5.80;;;6.70;99.90;;;;;;5115915;28;20055;-79
2022/11/27 10:19:24;;;;;;;17.20;7.07;;;6.80;99.90;;;;;;5097450;28;20027;-79
2022/11/27 10:21:58;;;;;;;15.70;6.15;;;6.80;99.90;;;;;;5115481;28;20061;-79
2022/11/27 10:24:55;;;;;;;15.32;6.85;;;6.80;99.90;;;;;;5080288;28;20502;-80
2022/11/27 10:27:32;;;;;;;17.52;7.03;;;6.80;99.90;;;;;;5099260;27;20066;-81
2022/11/27 10:29:59;;;;;;;17.35;6.97;;;6.80;99.90;;;;;;5090618;27;20107;-80
2022/11/27 10:32:30;;;;;;;18.55;7.15;;;7.30;99.90;;;;;;5103889;28;20039;-79
2022/11/27 10:35:04;;;;;;;14.20;6.90;;;6.80;99.90;;;;;;5098001;27;20039;-81
2022/11/27 10:37:35;;;;;;;14.57;7.22;;;6.80;99.90;;;;;;5097130;27;20050;-80
2022/11/27 10:40:12;;;;;;;14.52;6.78;;;6.80;99.90;;;;;;5106032;27;20031;-81
2022/11/27 10:42:58;;;;;;;15.10;7.07;;;6.80;99.90;;;;;;5106539;27;20031;-81
2022/11/27 10:45:43;;;;;;;17.05;7.35;;;6.80;99.90;;;;;;5107102;27;20104;-80
2022/11/27 10:48:10;;;;;;;16.73;7.63;;;8.30;99.90;;;;;;5117159;27;20131;-81
2022/11/27 10:50:36;;;;;;;15.20;7.55;;;6.80;99.90;;;;;;5116726;27;20712;-81
2022/11/27 10:53:06;;;;;;;14.00;6.72;;;6.80;99.90;;;;;;5116563;27;20147;-80
2022/11/27 10:56:18;;;;;;;13.10;7.15;;;6.80;99.90;;;;;;5116322;27;20123;-80
2022/11/27 10:59:04;;;;;;;13.52;6.80;;;6.80;99.90;;;;;;5135855;27;20047;-81
2022/11/27 11:01:44;;;;;;;15.85;7.70;;;6.90;99.90;;;;;;5099469;27;20155;-80
2022/11/27 11:04:12;;;;;;;14.77;6.32;;;8.10;99.90;;;;;;5117310;27;20404;-81
2022/11/27 11:06:42;;;;;;;13.93;6.75;;;6.90;99.90;;;;;;5134520;27;20126;-81
2022/11/27 11:09:20;;;;;;;14.48;7.40;;;6.80;99.90;;;;;;5135258;27;20057;-80
2022/11/27 11:11:46;;;;;;;15.00;6.55;;;6.80;99.90;;;;;;5130075;27;20464;-80
2022/11/27 11:14:17;;;;;;;14.07;7.30;;;6.90;99.90;;;;;;5125204;27;20063;-80
2022/11/27 11:16:44;;;;;;;16.25;7.30;;;7.70;99.90;;;;;;5106722;27;20036;-79
2022/11/27 11:19:30;;;;;;;16.33;6.55;;;6.80;99.90;;;;;;5134823;27;20050;-79
2022/11/27 11:21:58;;;;;;;16.27;7.63;;;6.80;99.90;;;;;;5133922;27;20084;-79
2022/11/27 11:24:32;;;;;;;14.90;6.88;;;6.90;99.90;;;;;;5116461;27;20551;-80
2022/11/27 11:27:20;;;;;;;14.40;6.65;;;7.10;99.90;;;;;;5115741;27;20034;-80
2022/11/27 11:29:47;;;;;;;14.52;6.38;;;6.90;99.90;;;;;;5116552;27;20039;-79
2022/11/27 11:32:18;;;;;;;12.80;6.90;;;6.90;99.90;;;;;;5134696;27;20082;-80
2022/11/27 11:35:08;;;;;;;13.52;6.15;;;7.90;99.90;;;;;;5100491;27;20449;-79
2022/11/27 11:37:37;;;;;;;14.27;6.75;;;6.90;99.90;;;;;;5128764;27;20036;-79
2022/11/27 11:40:20;;;;;;;13.30;7.30;;;6.90;99.90;;;;;;5125058;27;20039;-79
2022/11/27 11:42:57;;;;;;;14.73;7.10;;;6.90;99.90;;;;;;5134572;27;20112;-79
2022/11/27 11:45:23;;;;;;;15.18;7.07;;;6.90;99.90;;;;;;5134285;27;20055;-79
2022/11/27 11:48:01;;;;;;;18.88;7.15;;;6.90;99.90;;;;;;5134555;27;20053;-79
2022/11/27 11:50:43;;;;;;;14.20;6.97;;;6.90;99.90;;;;;;5132694;27;20035;-79
2022/11/27 11:53:11;;;;;;;12.25;6.28;;;7.70;99.90;;;;;;5134078;27;20359;-79
2022/11/27 11:55:39;;;;;;;15.13;6.82;;;6.80;99.90;;;;;;5115747;27;20050;-79
2022/11/27 11:58:29;;;;;;;14.52;6.78;;;6.80;99.90;;;;;;5134244;27;20043;-79
2022/11/27 12:01:13;;;;;;;13.32;6.78;;;6.80;99.90;;;;;;5133765;27;20068;-80
2022/11/27 12:03:48;;;;;;;11.95;6.95;;;6.90;99.90;;;;;;5113453;27;20058;-75
2022/11/27 12:06:39;;;;;;;14.77;7.05;;;7.00;99.90;;;;;;5095382;27;20045;-74
2022/11/27 12:09:34;;;;;;;13.65;7.20;;;6.80;99.90;;;;;;5112694;27;20395;-74
2022/11/27 12:12:37;;;;;;;16.95;6.95;;;5.90;99.90;;;;;;5094702;27;20058;-74
2022/11/27 12:15:25;;;;;;;12.50;6.95;;;6.80;99.90;;;;;;5128864;27;20092;-74
2022/11/27 12:18:02;;;;;;;11.15;6.53;;;6.80;99.90;;;;;;5111790;27;20043;-74
2022/11/27 12:20:41;;;;;;;12.27;6.45;;;6.90;99.90;;;;;;5130854;27;20070;-74
2022/11/27 12:23:16;;;;;;;15.18;7.35;;;6.80;99.90;;;;;;5098255;27;20121;-74
2022/11/27 12:25:48;;;;;;;12.90;6.32;;;7.30;99.90;;;;;;5130451;27;20491;-74
2022/11/27 12:28:32;;;;;;;14.48;6.82;;;6.90;99.90;;;;;;5130433;27;20055;-74
2022/11/27 12:31:17;;;;;;;14.68;6.97;;;6.90;99.90;;;;;;5094885;27;20047;-75
2022/11/27 12:34:14;;;;;;;13.70;6.72;;;6.90;99.90;;;;;;5114667;27;20372;-79
2022/11/27 12:36:39;;;;;;;;;;;7.00;99.90;;;;;;5092065;27;20078;-79
2022/11/27 12:39:50;;;;;;;13.47;7.27;;;6.90;99.90;;;;;;5115034;27;19915;-79
2022/11/27 12:42:33;;;;;;;14.15;7.40;;;6.90;99.90;;;;;;5117129;27;20061;-79
2022/11/27 12:45:13;;;;;;;15.90;6.95;;;6.90;99.90;;;;;;5133075;27;20047;-80
2022/11/27 12:47:52;;;;;;;13.57;7.07;;;7.00;99.90;;;;;;5099089;28;20057;-79
2022/11/27 12:50:37;;;;;;;13.30;6.65;;;7.00;99.90;;;;;;5132860;27;20394;-79
2022/11/27 12:53:13;;;;;;;13.02;6.90;;;7.00;99.90;;;;;;5132907;27;20051;-78
2022/11/27 12:55:43;;;;;;;13.52;6.53;;;7.70;99.90;;;;;;5113635;28;20456;-78
2022/11/27 12:58:36;;;;;;;13.77;7.43;;;7.00;99.90;;;;;;5133375;28;20058;-78
2022/11/27 13:01:10;;;;;;;11.15;6.72;;;7.00;99.90;;;;;;5133269;28;20043;-79
2022/11/27 13:04:03;;;;;;;12.77;6.78;;;6.90;99.90;;;;;;5133169;28;20049;-80
2022/11/27 13:06:33;;;;;;;14.30;6.82;;;6.90;99.90;;;;;;5088059;28;20055;-80
2022/11/27 13:09:14;;;;;;;12.63;6.95;;;6.90;99.90;;;;;;5133623;28;20039;-80